sensor_id;sensor_type;location;lat;lon;timestamp;pressure;altitude;pressure_sealevel;temperature;humidity
28004;BME280;15330;51.234;6.754;2023-09-19T00:00:57;100087.19;;;15.25;93.24
28004;BME280;15330;51.234;6.754;2023-09-19T00:03:23;100103.34;;;15.25;92.96
28004;BME280;15330;51.234;6.754;2023-09-19T00:05:49;100106.22;;;15.30;93.23
28004;BME280;15330;51.234;6.754;2023-09-19T00:08:16;100096.09;;;15.19;93.44
28004;BME280;15330;51.234;6.754;2023-09-19T00:10:42;100108.75;;;15.25;92.85
28004;BME280;15330;51.234;6.754;2023-09-19T00:13:08;100107.50;;;15.14;92.71
28004;BME280;15330;51.234;6.754;2023-09-19T00:15:41;100111.03;;;15.15;92.65
28004;BME280;15330;51.234;6.754;2023-09-19T00:18:07;100102.72;;;15.16;92.95
28004;BME280;15330;51.234;6.754;2023-09-19T00:20:37;100109.56;;;15.19;93.17
28004;BME280;15330;51.234;6.754;2023-09-19T00:23:03;100100.44;;;15.20;92.67
28004;BME280;15330;51.234;6.754;2023-09-19T00:25:33;100104.44;;;15.04;92.06
28004;BME280;15330;51.234;6.754;2023-09-19T00:28:00;100107.50;;;15.07;91.92
28004;BME280;15330;51.234;6.754;2023-09-19T00:30:26;100109.34;;;15.20;91.92
28004;BME280;15330;51.234;6.754;2023-09-19T00:32:52;100115.59;;;15.14;91.11
28004;BME280;15330;51.234;6.754;2023-09-19T00:35:18;100112.69;;;15.16;91.97
28004;BME280;15330;51.234;6.754;2023-09-19T00:37:44;100120.78;;;15.09;91.95
28004;BME280;15330;51.234;6.754;2023-09-19T00:40:10;100115.78;;;15.06;91.85
28004;BME280;15330;51.234;6.754;2023-09-19T00:42:41;100120.34;;;15.19;91.40
28004;BME280;15330;51.234;6.754;2023-09-19T00:45:11;100111.03;;;15.15;91.42
28004;BME280;15330;51.234;6.754;2023-09-19T00:47:39;100123.47;;;15.02;91.83
28004;BME280;15330;51.234;6.754;2023-09-19T00:50:05;100114.56;;;15.02;91.10
28004;BME280;15330;51.234;6.754;2023-09-19T00:52:34;100114.56;;;14.89;91.27
28004;BME280;15330;51.234;6.754;2023-09-19T00:55:02;100120.59;;;15.04;91.35
28004;BME280;15330;51.234;6.754;2023-09-19T00:57:28;100120.59;;;14.91;91.92
28004;BME280;15330;51.234;6.754;2023-09-19T01:00:00;100129.94;;;14.95;92.00
28004;BME280;15330;51.234;6.754;2023-09-19T01:02:26;100129.47;;;14.98;91.77
28004;BME280;15330;51.234;6.754;2023-09-19T01:04:55;100137.38;;;14.93;92.03
28004;BME280;15330;51.234;6.754;2023-09-19T01:07:20;100131.75;;;15.07;91.74
28004;BME280;15330;51.234;6.754;2023-09-19T01:09:48;100144.19;;;15.09;91.80
28004;BME280;15330;51.234;6.754;2023-09-19T01:12:16;100147.94;;;15.01;92.09
28004;BME280;15330;51.234;6.754;2023-09-19T01:14:55;100152.47;;;14.87;91.93
28004;BME280;15330;51.234;6.754;2023-09-19T01:17:32;100150.22;;;14.84;92.59
28004;BME280;15330;51.234;6.754;2023-09-19T01:20:15;100157.44;;;14.97;92.60
28004;BME280;15330;51.234;6.754;2023-09-19T01:30:57;100166.38;;;14.71;93.82
28004;BME280;15330;51.234;6.754;2023-09-19T01:33:25;100171.56;;;14.92;93.25
28004;BME280;15330;51.234;6.754;2023-09-19T01:35:51;100177.31;;;14.76;93.42
28004;BME280;15330;51.234;6.754;2023-09-19T01:38:18;100169.06;;;14.84;93.27
28004;BME280;15330;51.234;6.754;2023-09-19T01:40:57;100174.84;;;14.88;93.27
28004;BME280;15330;51.234;6.754;2023-09-19T01:43:33;100181.06;;;14.82;93.21
28004;BME280;15330;51.234;6.754;2023-09-19T01:46:10;100178.78;;;14.85;92.46
28004;BME280;15330;51.234;6.754;2023-09-19T01:51:14;100184.38;;;14.77;93.26
28004;BME280;15330;51.234;6.754;2023-09-19T01:54:03;100183.78;;;14.82;93.60
28004;BME280;15330;51.234;6.754;2023-09-19T01:56:35;100188.53;;;14.80;93.92
28004;BME280;15330;51.234;6.754;2023-09-19T01:59:06;100183.16;;;14.73;93.75
28004;BME280;15330;51.234;6.754;2023-09-19T02:01:33;100183.53;;;14.77;93.29
28004;BME280;15330;51.234;6.754;2023-09-19T02:04:00;100190.78;;;14.63;93.51
28004;BME280;15330;51.234;6.754;2023-09-19T02:06:26;100194.72;;;14.67;93.82
28004;BME280;15330;51.234;6.754;2023-09-19T02:08:53;100182.50;;;14.58;93.60
28004;BME280;15330;51.234;6.754;2023-09-19T02:11:18;100192.84;;;14.67;92.77
28004;BME280;15330;51.234;6.754;2023-09-19T02:13:44;100195.16;;;14.77;92.28
28004;BME280;15330;51.234;6.754;2023-09-19T02:16:09;100191.81;;;14.62;92.11
28004;BME280;15330;51.234;6.754;2023-09-19T02:18:36;100200.09;;;14.60;91.82
28004;BME280;15330;51.234;6.754;2023-09-19T02:21:02;100197.59;;;14.52;92.30
28004;BME280;15330;51.234;6.754;2023-09-19T02:23:27;100204.84;;;14.65;91.66
28004;BME280;15330;51.234;6.754;2023-09-19T02:25:56;100203.00;;;14.59;91.54
28004;BME280;15330;51.234;6.754;2023-09-19T02:28:28;100210.06;;;14.73;90.09
28004;BME280;15330;51.234;6.754;2023-09-19T02:30:57;100207.53;;;14.65;89.67
28004;BME280;15330;51.234;6.754;2023-09-19T02:33:23;100210.66;;;14.62;89.35
28004;BME280;15330;51.234;6.754;2023-09-19T02:35:48;100207.97;;;14.62;89.03
28004;BME280;15330;51.234;6.754;2023-09-19T02:38:14;100209.59;;;14.56;88.54
28004;BME280;15330;51.234;6.754;2023-09-19T02:40:43;100198.84;;;14.50;86.94
28004;BME280;15330;51.234;6.754;2023-09-19T02:43:09;100218.91;;;14.54;86.00
28004;BME280;15330;51.234;6.754;2023-09-19T02:45:35;100212.25;;;14.43;86.34
28004;BME280;15330;51.234;6.754;2023-09-19T02:48:00;100211.47;;;14.49;85.31
28004;BME280;15330;51.234;6.754;2023-09-19T02:50:29;100213.72;;;14.46;84.69
28004;BME280;15330;51.234;6.754;2023-09-19T02:52:54;100209.59;;;14.50;85.13
28004;BME280;15330;51.234;6.754;2023-09-19T02:55:20;100210.25;;;14.58;85.08
28004;BME280;15330;51.234;6.754;2023-09-19T02:57:51;100213.53;;;14.47;85.01
28004;BME280;15330;51.234;6.754;2023-09-19T03:00:18;100210.81;;;14.47;85.78
28004;BME280;15330;51.234;6.754;2023-09-19T03:02:55;100225.13;;;14.48;85.32
28004;BME280;15330;51.234;6.754;2023-09-19T03:05:22;100229.91;;;14.52;85.32
28004;BME280;15330;51.234;6.754;2023-09-19T03:07:49;100221.13;;;14.37;85.12
28004;BME280;15330;51.234;6.754;2023-09-19T03:10:16;100236.28;;;14.45;85.05
28004;BME280;15330;51.234;6.754;2023-09-19T03:12:43;100229.38;;;14.36;85.58
28004;BME280;15330;51.234;6.754;2023-09-19T03:15:08;100225.31;;;14.46;84.71
28004;BME280;15330;51.234;6.754;2023-09-19T03:17:34;100231.66;;;14.32;85.63
28004;BME280;15330;51.234;6.754;2023-09-19T03:20:00;100226.88;;;14.34;85.43
28004;BME280;15330;51.234;6.754;2023-09-19T03:22:28;100217.59;;;14.30;85.36
28004;BME280;15330;51.234;6.754;2023-09-19T03:24:54;100220.41;;;14.15;85.63
28004;BME280;15330;51.234;6.754;2023-09-19T03:27:19;100224.56;;;14.18;85.95
28004;BME280;15330;51.234;6.754;2023-09-19T03:29:46;100228.34;;;14.30;85.40
28004;BME280;15330;51.234;6.754;2023-09-19T03:32:12;100229.56;;;14.27;85.53
28004;BME280;15330;51.234;6.754;2023-09-19T03:34:38;100234.56;;;14.30;85.68
28004;BME280;15330;51.234;6.754;2023-09-19T03:37:11;100240.28;;;14.14;86.16
28004;BME280;15330;51.234;6.754;2023-09-19T03:39:36;100230.78;;;14.25;86.65
28004;BME280;15330;51.234;6.754;2023-09-19T03:42:02;100231.88;;;14.30;86.37
28004;BME280;15330;51.234;6.754;2023-09-19T03:44:29;100228.28;;;14.17;86.80
28004;BME280;15330;51.234;6.754;2023-09-19T03:46:55;100221.69;;;14.19;86.95
28004;BME280;15330;51.234;6.754;2023-09-19T03:49:21;100228.09;;;14.25;86.60
28004;BME280;15330;51.234;6.754;2023-09-19T03:51:47;100220.00;;;14.12;87.14
28004;BME280;15330;51.234;6.754;2023-09-19T03:54:12;100235.50;;;14.10;87.19
28004;BME280;15330;51.234;6.754;2023-09-19T03:56:38;100231.78;;;14.11;87.48
28004;BME280;15330;51.234;6.754;2023-09-19T03:59:03;100224.78;;;14.23;87.09
28004;BME280;15330;51.234;6.754;2023-09-19T04:01:28;100235.31;;;14.18;87.27
28004;BME280;15330;51.234;6.754;2023-09-19T04:03:57;100231.16;;;14.15;87.53
28004;BME280;15330;51.234;6.754;2023-09-19T04:06:22;100229.03;;;13.98;88.57
28004;BME280;15330;51.234;6.754;2023-09-19T04:08:48;100234.22;;;14.06;88.48
28004;BME280;15330;51.234;6.754;2023-09-19T04:11:14;100234.69;;;14.09;88.51
28004;BME280;15330;51.234;6.754;2023-09-19T04:13:39;100235.25;;;14.05;88.45
28004;BME280;15330;51.234;6.754;2023-09-19T04:16:05;100232.31;;;13.93;88.76
28004;BME280;15330;51.234;6.754;2023-09-19T04:18:32;100230.50;;;14.00;88.28
28004;BME280;15330;51.234;6.754;2023-09-19T04:20:58;100229.88;;;14.05;88.43
28004;BME280;15330;51.234;6.754;2023-09-19T04:23:23;100229.66;;;14.00;87.93
28004;BME280;15330;51.234;6.754;2023-09-19T04:25:49;100228.19;;;13.97;87.59
28004;BME280;15330;51.234;6.754;2023-09-19T04:28:15;100233.44;;;14.12;87.61
28004;BME280;15330;51.234;6.754;2023-09-19T04:30:41;100233.28;;;14.26;87.07
28004;BME280;15330;51.234;6.754;2023-09-19T04:33:06;100241.53;;;14.12;86.90
28004;BME280;15330;51.234;6.754;2023-09-19T04:35:32;100231.63;;;14.25;86.88
28004;BME280;15330;51.234;6.754;2023-09-19T04:37:57;100234.50;;;14.17;86.40
28004;BME280;15330;51.234;6.754;2023-09-19T04:40:23;100242.28;;;13.99;86.82
28004;BME280;15330;51.234;6.754;2023-09-19T04:42:56;100238.97;;;14.04;87.10
28004;BME280;15330;51.234;6.754;2023-09-19T04:45:28;100238.13;;;13.96;87.27
28004;BME280;15330;51.234;6.754;2023-09-19T04:47:53;100235.69;;;14.08;86.51
28004;BME280;15330;51.234;6.754;2023-09-19T04:50:19;100235.53;;;14.23;85.99
28004;BME280;15330;51.234;6.754;2023-09-19T04:52:49;100238.59;;;14.13;86.08
28004;BME280;15330;51.234;6.754;2023-09-19T04:55:17;100240.19;;;13.94;86.79
28004;BME280;15330;51.234;6.754;2023-09-19T04:57:47;100240.06;;;14.16;86.29
28004;BME280;15330;51.234;6.754;2023-09-19T05:00:18;100239.16;;;14.02;86.73
28004;BME280;15330;51.234;6.754;2023-09-19T05:02:44;100247.88;;;14.04;86.84
28004;BME280;15330;51.234;6.754;2023-09-19T05:05:10;100253.44;;;13.96;87.07
28004;BME280;15330;51.234;6.754;2023-09-19T05:07:37;100252.84;;;14.01;87.32
28004;BME280;15330;51.234;6.754;2023-09-19T05:10:04;100261.78;;;14.14;86.63
28004;BME280;15330;51.234;6.754;2023-09-19T05:12:33;100266.69;;;14.04;87.16
28004;BME280;15330;51.234;6.754;2023-09-19T05:14:59;100263.19;;;14.04;86.94
28004;BME280;15330;51.234;6.754;2023-09-19T05:17:26;100275.66;;;14.11;85.50
28004;BME280;15330;51.234;6.754;2023-09-19T05:19:52;100284.97;;;14.50;85.27
28004;BME280;15330;51.234;6.754;2023-09-19T05:22:18;100282.53;;;14.20;84.73
28004;BME280;15330;51.234;6.754;2023-09-19T05:24:44;100278.94;;;14.13;85.29
28004;BME280;15330;51.234;6.754;2023-09-19T05:27:12;100282.66;;;14.12;84.69
28004;BME280;15330;51.234;6.754;2023-09-19T05:29:37;100291.19;;;14.16;84.18
28004;BME280;15330;51.234;6.754;2023-09-19T05:32:03;100301.91;;;14.09;84.18
28004;BME280;15330;51.234;6.754;2023-09-19T05:34:29;100307.31;;;14.16;84.39
28004;BME280;15330;51.234;6.754;2023-09-19T05:36:55;100313.44;;;14.03;84.42
28004;BME280;15330;51.234;6.754;2023-09-19T05:39:21;100302.31;;;14.06;83.48
28004;BME280;15330;51.234;6.754;2023-09-19T05:41:48;100315.41;;;14.22;83.66
28004;BME280;15330;51.234;6.754;2023-09-19T05:44:13;100327.47;;;14.33;83.32
28004;BME280;15330;51.234;6.754;2023-09-19T05:46:41;100318.78;;;14.31;83.37
28004;BME280;15330;51.234;6.754;2023-09-19T05:49:07;100323.72;;;14.27;82.94
28004;BME280;15330;51.234;6.754;2023-09-19T05:51:32;100327.28;;;14.34;83.59
28004;BME280;15330;51.234;6.754;2023-09-19T05:53:58;100335.50;;;14.20;83.92
28004;BME280;15330;51.234;6.754;2023-09-19T05:56:23;100345.00;;;14.50;82.64
28004;BME280;15330;51.234;6.754;2023-09-19T05:58:49;100338.97;;;14.42;82.94
28004;BME280;15330;51.234;6.754;2023-09-19T06:01:16;100351.03;;;14.52;82.94
28004;BME280;15330;51.234;6.754;2023-09-19T06:03:42;100354.56;;;14.59;82.04
28004;BME280;15330;51.234;6.754;2023-09-19T06:06:08;100358.25;;;14.52;83.50
28004;BME280;15330;51.234;6.754;2023-09-19T06:08:36;100365.34;;;14.66;83.56
28004;BME280;15330;51.234;6.754;2023-09-19T06:11:02;100364.63;;;14.44;82.92
28004;BME280;15330;51.234;6.754;2023-09-19T06:13:28;100352.06;;;14.58;82.55
28004;BME280;15330;51.234;6.754;2023-09-19T06:15:55;100356.03;;;14.34;84.09
28004;BME280;15330;51.234;6.754;2023-09-19T06:18:21;100364.06;;;14.55;83.20
28004;BME280;15330;51.234;6.754;2023-09-19T06:20:51;100337.75;;;14.51;83.25
28004;BME280;15330;51.234;6.754;2023-09-19T06:23:17;100336.75;;;14.65;82.85
28004;BME280;15330;51.234;6.754;2023-09-19T06:25:43;100339.56;;;14.44;84.02
28004;BME280;15330;51.234;6.754;2023-09-19T06:28:09;100345.53;;;14.74;83.22
28004;BME280;15330;51.234;6.754;2023-09-19T06:30:38;100349.66;;;14.76;82.90
28004;BME280;15330;51.234;6.754;2023-09-19T06:33:05;100346.69;;;14.64;83.50
28004;BME280;15330;51.234;6.754;2023-09-19T06:35:34;100347.78;;;14.70;83.43
28004;BME280;15330;51.234;6.754;2023-09-19T06:38:02;100348.16;;;14.67;84.29
28004;BME280;15330;51.234;6.754;2023-09-19T06:40:28;100342.16;;;14.65;84.43
28004;BME280;15330;51.234;6.754;2023-09-19T06:42:56;100342.38;;;14.70;84.07
28004;BME280;15330;51.234;6.754;2023-09-19T06:45:22;100340.47;;;14.64;84.43
28004;BME280;15330;51.234;6.754;2023-09-19T06:47:50;100346.94;;;14.69;84.50
28004;BME280;15330;51.234;6.754;2023-09-19T06:50:20;100349.69;;;14.89;83.70
28004;BME280;15330;51.234;6.754;2023-09-19T06:52:48;100347.28;;;14.53;84.98
28004;BME280;15330;51.234;6.754;2023-09-19T06:55:16;100359.56;;;14.69;84.24
28004;BME280;15330;51.234;6.754;2023-09-19T06:57:42;100349.56;;;14.56;84.81
28004;BME280;15330;51.234;6.754;2023-09-19T07:00:08;100363.69;;;14.65;84.42
28004;BME280;15330;51.234;6.754;2023-09-19T07:02:43;100348.16;;;14.67;84.88
28004;BME280;15330;51.234;6.754;2023-09-19T07:05:09;100366.16;;;14.60;84.59
28004;BME280;15330;51.234;6.754;2023-09-19T07:07:34;100364.50;;;14.65;84.71
28004;BME280;15330;51.234;6.754;2023-09-19T07:10:03;100369.94;;;14.72;84.47
28004;BME280;15330;51.234;6.754;2023-09-19T07:12:35;100359.38;;;14.77;84.66
28004;BME280;15330;51.234;6.754;2023-09-19T07:15:00;100365.41;;;14.86;84.54
28004;BME280;15330;51.234;6.754;2023-09-19T07:17:26;100362.63;;;15.20;83.31
28004;BME280;15330;51.234;6.754;2023-09-19T07:19:52;100366.28;;;14.93;83.89
28004;BME280;15330;51.234;6.754;2023-09-19T07:22:18;100358.69;;;15.29;82.40
28004;BME280;15330;51.234;6.754;2023-09-19T07:24:43;100363.25;;;15.29;82.62
28004;BME280;15330;51.234;6.754;2023-09-19T07:27:08;100373.41;;;15.20;82.26
28004;BME280;15330;51.234;6.754;2023-09-19T07:29:34;100375.94;;;15.48;81.65
28004;BME280;15330;51.234;6.754;2023-09-19T07:31:59;100378.44;;;15.43;81.27
28004;BME280;15330;51.234;6.754;2023-09-19T07:34:25;100380.69;;;15.39;81.96
28004;BME280;15330;51.234;6.754;2023-09-19T07:36:50;100380.06;;;15.31;81.97
28004;BME280;15330;51.234;6.754;2023-09-19T07:39:16;100391.66;;;15.38;81.84
28004;BME280;15330;51.234;6.754;2023-09-19T07:41:41;100380.50;;;15.41;82.01
28004;BME280;15330;51.234;6.754;2023-09-19T07:44:07;100377.84;;;15.61;80.42
28004;BME280;15330;51.234;6.754;2023-09-19T07:46:34;100384.63;;;15.37;81.54
28004;BME280;15330;51.234;6.754;2023-09-19T07:49:00;100380.06;;;15.31;81.73
28004;BME280;15330;51.234;6.754;2023-09-19T07:51:25;100391.28;;;15.48;81.56
28004;BME280;15330;51.234;6.754;2023-09-19T07:53:52;100383.47;;;15.66;81.14
28004;BME280;15330;51.234;6.754;2023-09-19T07:56:18;100382.00;;;15.70;80.71
28004;BME280;15330;51.234;6.754;2023-09-19T07:58:45;100386.38;;;15.97;79.45
28004;BME280;15330;51.234;6.754;2023-09-19T08:01:10;100388.22;;;15.84;80.51
28004;BME280;15330;51.234;6.754;2023-09-19T08:03:37;100388.03;;;16.82;77.03
28004;BME280;15330;51.234;6.754;2023-09-19T08:06:06;100390.16;;;16.74;75.65
28004;BME280;15330;51.234;6.754;2023-09-19T08:08:35;100396.75;;;16.84;74.50
28004;BME280;15330;51.234;6.754;2023-09-19T08:11:05;100397.50;;;17.11;73.69
28004;BME280;15330;51.234;6.754;2023-09-19T08:13:38;100393.66;;;17.57;72.10
28004;BME280;15330;51.234;6.754;2023-09-19T08:16:10;100396.41;;;17.19;72.96
28004;BME280;15330;51.234;6.754;2023-09-19T08:18:37;100394.53;;;17.19;71.71
28004;BME280;15330;51.234;6.754;2023-09-19T08:21:06;100392.06;;;17.49;71.03
28004;BME280;15330;51.234;6.754;2023-09-19T08:23:38;100387.97;;;17.40;70.91
28004;BME280;15330;51.234;6.754;2023-09-19T08:26:04;100399.06;;;17.57;70.90
28004;BME280;15330;51.234;6.754;2023-09-19T08:28:33;100398.13;;;17.76;70.06
28004;BME280;15330;51.234;6.754;2023-09-19T08:31:06;100410.81;;;18.25;68.13
28004;BME280;15330;51.234;6.754;2023-09-19T08:33:32;100416.66;;;17.41;71.13
28004;BME280;15330;51.234;6.754;2023-09-19T08:35:59;100412.41;;;17.20;71.47
28004;BME280;15330;51.234;6.754;2023-09-19T08:38:24;100408.47;;;17.16;71.91
28004;BME280;15330;51.234;6.754;2023-09-19T08:40:57;100407.63;;;17.54;70.51
28004;BME280;15330;51.234;6.754;2023-09-19T08:43:23;100408.69;;;17.53;69.84
28004;BME280;15330;51.234;6.754;2023-09-19T08:45:49;100413.66;;;18.12;68.68
28004;BME280;15330;51.234;6.754;2023-09-19T08:48:23;100417.91;;;18.26;67.75
28004;BME280;15330;51.234;6.754;2023-09-19T08:50:57;100412.59;;;18.13;66.87
28004;BME280;15330;51.234;6.754;2023-09-19T08:55:59;100421.88;;;17.74;67.00
28004;BME280;15330;51.234;6.754;2023-09-19T08:58:30;100419.78;;;18.01;66.85
28004;BME280;15330;51.234;6.754;2023-09-19T09:00:57;100424.31;;;18.50;64.57
28004;BME280;15330;51.234;6.754;2023-09-19T09:03:25;100418.88;;;18.75;63.66
28004;BME280;15330;51.234;6.754;2023-09-19T09:05:51;100413.63;;;19.58;60.53
28004;BME280;15330;51.234;6.754;2023-09-19T09:08:19;100438.69;;;18.51;62.75
28004;BME280;15330;51.234;6.754;2023-09-19T09:10:47;100427.84;;;18.51;64.41
28004;BME280;15330;51.234;6.754;2023-09-19T09:13:12;100410.97;;;20.28;58.88
28004;BME280;15330;51.234;6.754;2023-09-19T09:15:40;100417.03;;;20.65;56.79
28004;BME280;15330;51.234;6.754;2023-09-19T09:18:07;100417.50;;;20.39;56.55
28004;BME280;15330;51.234;6.754;2023-09-19T09:20:32;100406.94;;;18.94;60.49
28004;BME280;15330;51.234;6.754;2023-09-19T09:22:58;100410.00;;;19.76;57.68
28004;BME280;15330;51.234;6.754;2023-09-19T09:25:48;100402.09;;;19.44;58.68
28004;BME280;15330;51.234;6.754;2023-09-19T09:28:23;100400.81;;;20.00;58.05
28004;BME280;15330;51.234;6.754;2023-09-19T09:30:49;100408.59;;;19.85;57.45
28004;BME280;15330;51.234;6.754;2023-09-19T09:33:15;100410.56;;;19.06;59.42
28004;BME280;15330;51.234;6.754;2023-09-19T09:35:54;100420.31;;;18.53;62.48
28004;BME280;15330;51.234;6.754;2023-09-19T09:38:25;100417.06;;;18.87;60.93
28004;BME280;15330;51.234;6.754;2023-09-19T09:40:58;100406.13;;;18.94;61.69
28004;BME280;15330;51.234;6.754;2023-09-19T09:43:34;100413.16;;;17.72;64.97
28004;BME280;15330;51.234;6.754;2023-09-19T09:46:15;100403.78;;;18.18;63.74
28004;BME280;15330;51.234;6.754;2023-09-19T09:49:09;100393.72;;;19.46;58.79
28004;BME280;15330;51.234;6.754;2023-09-19T09:51:58;100398.28;;;19.34;57.99
28004;BME280;15330;51.234;6.754;2023-09-19T09:54:27;100398.50;;;19.32;58.00
28004;BME280;15330;51.234;6.754;2023-09-19T09:57:07;100413.25;;;18.52;60.87
28004;BME280;15330;51.234;6.754;2023-09-19T10:02:17;100409.13;;;20.52;54.18
28004;BME280;15330;51.234;6.754;2023-09-19T10:04:48;100414.72;;;22.16;49.66
28004;BME280;15330;51.234;6.754;2023-09-19T10:07:26;100401.91;;;22.16;48.05
28004;BME280;15330;51.234;6.754;2023-09-19T10:09:53;100395.31;;;22.89;47.03
28004;BME280;15330;51.234;6.754;2023-09-19T10:12:24;100396.03;;;21.91;47.50
28004;BME280;15330;51.234;6.754;2023-09-19T10:14:53;100404.88;;;21.36;48.91
28004;BME280;15330;51.234;6.754;2023-09-19T10:17:20;100407.22;;;21.04;49.29
28004;BME280;15330;51.234;6.754;2023-09-19T10:19:55;100395.06;;;20.32;51.70
28004;BME280;15330;51.234;6.754;2023-09-19T10:22:24;100392.56;;;20.30;51.16
28004;BME280;15330;51.234;6.754;2023-09-19T10:24:53;100396.91;;;22.47;48.88
28004;BME280;15330;51.234;6.754;2023-09-19T10:27:19;100384.53;;;22.78;46.42
28004;BME280;15330;51.234;6.754;2023-09-19T10:29:48;100379.88;;;22.18;47.61
28004;BME280;15330;51.234;6.754;2023-09-19T10:32:16;100382.28;;;23.45;43.92
28004;BME280;15330;51.234;6.754;2023-09-19T10:34:47;100370.34;;;24.62;41.99
28004;BME280;15330;51.234;6.754;2023-09-19T10:37:13;100368.28;;;21.44;48.67
28004;BME280;15330;51.234;6.754;2023-09-19T10:39:40;100371.75;;;24.75;41.36
28004;BME280;15330;51.234;6.754;2023-09-19T10:42:14;100386.59;;;20.80;50.14
28004;BME280;15330;51.234;6.754;2023-09-19T10:44:42;100382.53;;;23.70;44.47
28004;BME280;15330;51.234;6.754;2023-09-19T10:47:09;100368.56;;;20.62;50.04
28004;BME280;15330;51.234;6.754;2023-09-19T10:49:43;100370.31;;;22.97;46.34
28004;BME280;15330;51.234;6.754;2023-09-19T10:52:13;100388.38;;;21.26;49.57
28004;BME280;15330;51.234;6.754;2023-09-19T10:54:46;100393.56;;;21.28;49.21
28004;BME280;15330;51.234;6.754;2023-09-19T10:57:19;100391.00;;;22.93;45.79
28004;BME280;15330;51.234;6.754;2023-09-19T11:00:08;100374.50;;;23.91;42.81
28004;BME280;15330;51.234;6.754;2023-09-19T11:05:37;100389.16;;;21.38;48.49
28004;BME280;15330;51.234;6.754;2023-09-19T11:10:48;100376.09;;;23.82;44.06
28004;BME280;15330;51.234;6.754;2023-09-19T11:13:28;100381.88;;;21.44;48.68
28004;BME280;15330;51.234;6.754;2023-09-19T11:31:51;100380.59;;;19.61;51.90
28004;BME280;15330;51.234;6.754;2023-09-19T11:37:00;100388.03;;;19.36;52.24
28004;BME280;15330;51.234;6.754;2023-09-19T11:39:29;100389.78;;;19.60;51.78
28004;BME280;15330;51.234;6.754;2023-09-19T11:41:54;100397.44;;;19.03;52.90
28004;BME280;15330;51.234;6.754;2023-09-19T11:44:32;100388.97;;;19.30;53.12
28004;BME280;15330;51.234;6.754;2023-09-19T11:47:04;100372.69;;;19.30;53.13
28004;BME280;15330;51.234;6.754;2023-09-19T11:49:31;100370.72;;;19.07;54.17
28004;BME280;15330;51.234;6.754;2023-09-19T11:52:00;100373.81;;;19.22;53.02
28004;BME280;15330;51.234;6.754;2023-09-19T11:54:27;100366.06;;;19.26;52.95
28004;BME280;15330;51.234;6.754;2023-09-19T11:56:57;100374.34;;;19.31;52.10
28004;BME280;15330;51.234;6.754;2023-09-19T11:59:24;100369.38;;;19.28;50.82
28004;BME280;15330;51.234;6.754;2023-09-19T12:01:54;100373.53;;;19.30;51.95
28004;BME280;15330;51.234;6.754;2023-09-19T12:07:09;100362.88;;;19.59;50.32
28004;BME280;15330;51.234;6.754;2023-09-19T12:09:45;100352.97;;;19.64;51.33
28004;BME280;15330;51.234;6.754;2023-09-19T12:12:19;100362.72;;;19.12;51.87
28004;BME280;15330;51.234;6.754;2023-09-19T12:14:51;100349.19;;;19.24;51.63
28004;BME280;15330;51.234;6.754;2023-09-19T12:17:17;100352.41;;;19.32;50.84
28004;BME280;15330;51.234;6.754;2023-09-19T12:19:51;100371.78;;;19.06;50.93
28004;BME280;15330;51.234;6.754;2023-09-19T12:22:16;100352.28;;;19.27;51.24
28004;BME280;15330;51.234;6.754;2023-09-19T12:24:44;100355.03;;;19.39;50.91
28004;BME280;15330;51.234;6.754;2023-09-19T12:27:11;100344.31;;;19.14;50.16
28004;BME280;15330;51.234;6.754;2023-09-19T12:29:46;100339.97;;;19.13;50.15
28004;BME280;15330;51.234;6.754;2023-09-19T12:32:14;100323.84;;;19.60;50.05
28004;BME280;15330;51.234;6.754;2023-09-19T12:34:42;100327.38;;;19.49;49.92
28004;BME280;15330;51.234;6.754;2023-09-19T12:37:13;100321.63;;;19.27;49.99
28004;BME280;15330;51.234;6.754;2023-09-19T12:39:53;100334.00;;;19.88;48.98
28004;BME280;15330;51.234;6.754;2023-09-19T12:42:24;100322.94;;;19.36;50.09
28004;BME280;15330;51.234;6.754;2023-09-19T12:44:53;100317.88;;;19.39;50.18
28004;BME280;15330;51.234;6.754;2023-09-19T12:47:23;100318.53;;;19.65;49.79
28004;BME280;15330;51.234;6.754;2023-09-19T12:50:11;100301.19;;;19.66;49.16
28004;BME280;15330;51.234;6.754;2023-09-19T12:55:25;100305.88;;;20.17;49.81
28004;BME280;15330;51.234;6.754;2023-09-19T13:00:34;100299.53;;;19.65;49.55
28004;BME280;15330;51.234;6.754;2023-09-19T13:03:29;100320.38;;;19.41;49.37
28004;BME280;15330;51.234;6.754;2023-09-19T13:06:01;100304.47;;;19.56;49.59
28004;BME280;15330;51.234;6.754;2023-09-19T13:08:31;100306.16;;;19.81;49.48
28004;BME280;15330;51.234;6.754;2023-09-19T13:11:10;100302.75;;;19.62;49.74
28004;BME280;15330;51.234;6.754;2023-09-19T13:16:13;100336.34;;;19.19;49.74
28004;BME280;15330;51.234;6.754;2023-09-19T13:18:49;100314.88;;;19.18;50.69
28004;BME280;15330;51.234;6.754;2023-09-19T13:21:17;100321.81;;;19.14;50.72
28004;BME280;15330;51.234;6.754;2023-09-19T13:23:56;100330.22;;;18.94;51.23
28004;BME280;15330;51.234;6.754;2023-09-19T13:26:27;100311.94;;;19.19;51.37
28004;BME280;15330;51.234;6.754;2023-09-19T13:28:54;100321.84;;;19.25;51.26
28004;BME280;15330;51.234;6.754;2023-09-19T13:31:19;100318.88;;;19.15;51.15
28004;BME280;15330;51.234;6.754;2023-09-19T13:33:48;100327.41;;;18.89;51.61
28004;BME280;15330;51.234;6.754;2023-09-19T13:36:14;100316.00;;;18.98;51.31
28004;BME280;15330;51.234;6.754;2023-09-19T13:38:42;100310.81;;;18.97;51.86
28004;BME280;15330;51.234;6.754;2023-09-19T13:41:13;100316.72;;;18.76;52.95
28004;BME280;15330;51.234;6.754;2023-09-19T13:43:39;100307.31;;;18.78;52.62
28004;BME280;15330;51.234;6.754;2023-09-19T13:46:05;100301.91;;;18.60;53.23
28004;BME280;15330;51.234;6.754;2023-09-19T13:48:33;100312.59;;;18.73;53.14